This is the latest recevied weather packets stored in our database for station/object DC4XK-10. If no packets are shown the sender has not sent any weather packets the latest 10 day(s).
| Time | Temp. | Humidity | Pressure | Rain* | Wind** | Luminosity | Snow |
|---|---|---|---|---|---|---|---|
| 1777319331 | 6.67° C | 86% | 1023.3 hPa | 0 mm | 0 m/s | - | - |
| 1777318731 | 6.67° C | 85% | 1023.3 hPa | 0 mm | 0 m/s | - | - |
| 1777318131 | 6.67° C | 85% | 1023.3 hPa | 0 mm | 0 m/s | - | - |
| 1777317531 | 6.67° C | 83% | 1023.4 hPa | 0 mm | 0 m/s | - | - |
| 1777316932 | 7.22° C | 82% | 1023.3 hPa | 0 mm | 0 m/s | - | - |
| 1777316331 | 7.78° C | 80% | 1023.2 hPa | 0 mm | 0 m/s | - | - |
| 1777315731 | 8.33° C | 79% | 1023.1 hPa | 0 mm | 0 m/s | - | - |
| 1777315133 | 8.33° C | 78% | 1023 hPa | 0 mm | 0 m/s | - | - |
| 1777314531 | 9.44° C | 75% | 1023 hPa | 0 mm | 0 m/s | - | - |
| 1777313931 | 10.56° C | 71% | 1022.9 hPa | 0 mm | 0 m/s | - | - |
| 1777313333 | 11.67° C | 69% | 1022.6 hPa | 0 mm | 0 m/s | - | - |
| 1777312731 | 11.67° C | 67% | 1022.5 hPa | 0 mm | 0 m/s | - | - |
| 1777312131 | 11.67° C | 70% | 1022.5 hPa | 0 mm | 0 m/s | - | - |
| 1777311530 | 12.78° C | 66% | 1022.4 hPa | 0 mm | 0 m/s | - | - |
| 1777310931 | 12.78° C | 64% | 1022.3 hPa | 0 mm | 0 m/s | - | - |
| 1777310331 | 12.78° C | 61% | 1022.3 hPa | 0 mm | 0 m/s | - | - |
| 1777309730 | 12.78° C | 62% | 1022.2 hPa | 0 mm | 0 m/s | - | - |
| 1777309131 | 12.22° C | 64% | 1022.3 hPa | 0 mm | 0 m/s | - | - |
| 1777308531 | 13.33° C | 58% | 1022.2 hPa | 0 mm | 0.45 m/s, 63° | - | - |
| 1777307931 | 15° C | 49% | 1022.2 hPa | 0 mm | 0 m/s | - | - |
| 1777307331 | 12.22° C | 49% | 1022.3 hPa | 0 mm | 0.89 m/s, 212° | - | - |
| 1777306731 | 12.78° C | 48% | 1022.3 hPa | 0 mm | 0.89 m/s, 224° | - | - |
| 1777306130 | 12.78° C | 48% | 1022.3 hPa | 0 mm | 0.45 m/s, 227° | - | - |
| 1777305531 | 12.22° C | 46% | 1022.4 hPa | 0 mm | 0.45 m/s, 308° | - | - |
| 1777304932 | 12.22° C | 48% | 1022.3 hPa | 0 mm | 0.89 m/s, 267° | - | - |
* Rain latest hour (hover to see other rain measurements)
** Current wind speed in m/s (hover to see current wind gust speed)